Llano, TX

4:07 PM CDT on March 29, 2015 (GMT -0500)
Burnet Municipal-Craddock | | Change Station
CLOSE
Current Station
Airport
Location: Burnet,
Elevation: 1286 ft
Nearby Weather Stations

Elev 1286 ft 30.74 °N, 98.24 °W | Updated 14 minutes ago

Clear
Clear
82 °F
Feels Like 81 °F
N
15
Wind Variable Wind from South
Gusts 26 mph

Today
High -- | Low -- °F
--% Chance of Precip.
Yesterday
High -- | Low -- °F
Precip. -- in
7:27 AM 7:51 PM
Waxing Gibbous, 74% visible
Pressure 29.98 in
Visibility 10.0 miles
Clouds Clear
Heat Index 81 °F
Dew Point 53 °F
Humidity 37%
Rainfall 0.00 in
Snow Depth Not available.
UV 7 out of 12
Pollen 9.60 out of 12
Air Quality Not available.
Flu Activity Not available.
METAR KBMQ 292053Z AUTO 17013G23KT 10SM CLR 28/12 A3002 RMK AO2 SLP152 T02780117 56024 $

More Conditions Fewer Conditions

Pressure 29.98 in
Visibility 10.0 miles
Clouds Clear
Heat Index 81 °F
Dew Point 53 °F
Humidity 37%
Rainfall 0.00 in
Snow Depth Not available.
UV 7 out of 12
Pollen 9.60 out of 12
Air Quality Not available.
Flu Activity Not available.
METAR KBMQ 292053Z AUTO 17013G23KT 10SM CLR 28/12 A3002 RMK AO2 SLP152 T02780117 56024 $

More Conditions Fewer Conditions

10-Day Weather Forecast

Almanac

Astronomy

Mar. 29, 2015 Rise Set
Actual Time
Civil Twilight
Nautical Twilight
Astronomical Twilight
Moon
Length of Visible Light
Length of Day
Tomorrow will be .
, % of the Moon is Illuminated

Today's Extremes

State Highs State Lows

Community

WunderPhotos

Upload Photos

1,809,349 photos uploaded!

WunderBlogs® & News

Nearby

Air Quality

  Air Quality AQ Index Pollutant
Not available.

Snow Depth

Station Depth Elevation

Earthquake Activity

City Distance Mag. Time & Date
Minimum magnitude displayed is 2.5.

Coastal Water Temperatures

Place Temperature

Stations

Nearby Weather Stations

Station Location Temp. Windchill Dew Point Humidity Wind Precip. Elev Updated Type